Nearby METAR Reports

 

KNUQ - Moffett Nas/Mtn, California, USA
Distance from station: N 9mi, 14km
Updated: Thu, 21-Nov-2019 8:56am PST
NOT Current

 
Barometer: 29.86 inHg , 1011.2 hPa
2019/11/21 16:56 KNUQ 211656Z AUTO A2986 RMK AO2 SLP116 PWINO $
KSJC - San Jose, California, USA
Distance from station: NE 9mi, 14km
Updated: Tue, 18-Feb-2020 5:53am PST
Mostly Cloudy
Mostly Cloudy
 Wind from SE
Wind: SE 3 mph , 6 km/h
Temperature: 46°F , 8°C
Dew Point: 34°F , 1°C
Humidity: 62%
Barometer: 30.04 inHg , 1017.3 hPa
Clouds: Mostly Cloudy
Visibility: 10 miles , 16 km
Cloud details: Mostly Cloudy 10000 ft
Mostly Cloudy 14000 ft
2020/02/18 13:53 KSJC 181353Z 14003KT 10SM BKN100 BKN140 08/01 A3004 RMK AO2 SLP171 T00830006 $
 
KRHV - San Jose/Reid, California, USA
Distance from station: ENE 12mi, 19km
Updated: Mon, 17-Feb-2020 9:47pm PST
NOT Current
Clear
Clear
 Wind from calm
Wind: Calm
Temperature: 52°F , 11°C
Dew Point: 34°F , 1°C
Humidity: 50%
Barometer: 30.05 inHg , 1017.6 hPa
Clouds: Clear
Visibility: 10 miles , 16 km
2020/02/18 05:47 KRHV 180547Z 00000KT 10SM SKC 11/01 A3005 RMK LAST
KPAO - Palo Alto, California, USA
Distance from station: NNW 14mi, 23km
Updated: Mon, 17-Feb-2020 8:47pm PST
NOT Current
Clear
Clear
 Wind from calm
Wind: Calm
Temperature: 48°F , 9°C
Dew Point: 37°F , 3°C
Humidity: 66%
Barometer: 30.04 inHg , 1017.3 hPa
Clouds: Clear
Visibility: 10 miles , 16 km
2020/02/18 04:47 KPAO 180447Z 00000KT 10SM SKC 09/03 A3004 RMK LAST
 
KSQL - San Carlos Airpo, California, USA
Distance from station: NW 21mi, 34km
Updated: Tue, 18-Feb-2020 5:35am PST
Clear
Clear
 Wind from S
Wind: S 5 mph , 7 km/h
Temperature: 54°F , 12°C
Dew Point: 23°F , -5°C
Humidity: 30%
Barometer: 30.05 inHg , 1017.6 hPa
Clouds: Clear
Visibility: 10 miles , 16 km
2020/02/18 13:35 KSQL 181335Z AUTO 19004KT 10SM CLR 12/M05 A3005 RMK AO2
KWVI - Watsonville, California, USA
Distance from station: SSE 27mi, 44km
Updated: Tue, 18-Feb-2020 5:53am PST
Clear
Clear
 Wind from calm
Wind: Calm
Temperature: 45°F , 7°C
Dew Point: 34°F , 1°C
Humidity: 66%
Barometer: 30.03 inHg , 1016.9 hPa
Clouds: Clear
Visibility: 10 miles , 16 km
2020/02/18 13:53 KWVI 181353Z AUTO 00000KT 10SM CLR 07/01 A3003 RMK AO2 SLP169 T00670006
 
KHWD - Hayward, California, USA
Distance from station: N 28mi, 44km
Updated: Tue, 18-Feb-2020 5:54am PST
Clear
Clear
 Wind from calm
Wind: Calm
Temperature: 48°F , 9°C
Dew Point: 27°F , -3°C
Humidity: 43%
Barometer: 30.04 inHg , 1017.3 hPa
Clouds: Clear
Visibility: 10 miles , 16 km
2020/02/18 13:54 KHWD 181354Z AUTO 00000KT 10SM CLR 09/M03 A3004 RMK AO2 SLP181 T00891033
KSFO - San Francisco, California, USA
Distance from station: NW 30mi, 49km
Updated: Tue, 18-Feb-2020 5:56am PST
Mostly Cloudy
Mostly Cloudy
 Wind from SSE
Wind: SSE 6 mph , 9 km/h
Temperature: 54°F , 12°C
Dew Point: 25°F , -4°C
Humidity: 33%
Barometer: 30.04 inHg , 1017.3 hPa
Clouds: Mostly Cloudy
Visibility: 10 miles , 16 km
Cloud details: Mostly Cloudy 20000 ft
2020/02/18 13:56 KSFO 181356Z 15005KT 10SM BKN200 12/M04 A3004 RMK AO2 SLP171 T01171039
 
KHAF - Half Moon Bay, California, USA
Distance from station: WNW 31mi, 50km
Updated: Tue, 18-Feb-2020 5:35am PST
Mist, Overcast
Mist, Overcast
 Wind from NNE
Wind: NNE 3 mph , 6 km/h
Temperature: 37°F , 3°C
Dew Point: 37°F , 3°C
Humidity: 100%
Barometer: 30.03 inHg , 1016.9 hPa
Summary: Mist
Clouds: Overcast
Visibility: 5 miles , 8 km
Cloud details: Overcast 300 ft
2020/02/18 13:35 KHAF 181335Z AUTO 02003KT 5SM BR OVC003 03/03 A3003 RMK AO2
KOAK - Oakland, California, USA
Distance from station: NNW 31mi, 50km
Updated: Tue, 18-Feb-2020 5:53am PST
Mostly Cloudy
Mostly Cloudy
 Wind from NNE
Wind: NNE 5 mph , 7 km/h
Temperature: 48°F , 9°C
Wind Chill: 46°F , 8°C
Dew Point: 28°F , -2°C
Humidity: 46%
Barometer: 30.05 inHg , 1017.6 hPa
Clouds: Mostly Cloudy
Visibility: 10 miles , 16 km
Cloud details: Mostly Cloudy 17000 ft
2020/02/18 13:53 KOAK 181353Z 02004KT 10SM BKN170 09/M02 A3005 RMK AO2 SLP174 T00941017 $
 
KLVK - Livermore, California, USA
Distance from station: NNE 31mi, 51km
Updated: Tue, 18-Feb-2020 5:53am PST
Clear
Clear
 Wind from E
Wind: E 8 mph , 13 km/h
Temperature: 48°F , 9°C
Wind Chill: 44°F , 7°C
Dew Point: 21°F , -6°C
Humidity: 34%
Barometer: 30.05 inHg , 1017.6 hPa
Clouds: Clear
Visibility: 10 miles , 16 km
2020/02/18 13:53 KLVK 181353Z AUTO 08007KT 10SM CLR 09/M06 A3005 RMK AO2 SLP172 T00941061 $
KCVH - Hollister Muni, California, USA
Distance from station: SE 42mi, 68km
Updated: Tue, 18-Feb-2020 5:35am PST
Clear
Clear
 Wind from calm
Wind: Calm
Temperature: 37°F , 3°C
Dew Point: 28°F , -2°C
Humidity: 70%
Barometer: 30.05 inHg , 1017.6 hPa
Clouds: Clear
Visibility: 10 miles , 16 km
2020/02/18 13:35 KCVH 181335Z AUTO 00000KT 10SM CLR 03/M02 A3005 RMK A01
 
KSNS - Salinas, California, USA
Distance from station: SSE 48mi, 77km
Updated: Tue, 18-Feb-2020 5:53am PST
Clear
Clear
 Wind from SE
Wind: SE 10 mph , 17 km/h
Temperature: 41°F , 5°C
Wind Chill: 35°F , 2°C
Dew Point: 34°F , 1°C
Humidity: 76%
Barometer: 30.02 inHg , 1016.6 hPa
Clouds: Clear
Visibility: 10 miles , 16 km
2020/02/18 13:53 KSNS 181353Z 13009KT 10SM CLR 05/01 A3002 RMK AO2 SLP175 T00500006
KMRY - Monterey, California, USA
Distance from station: SSE 49mi, 78km
Updated: Tue, 18-Feb-2020 5:54am PST
Clear
Clear
 Wind from E
Wind: E 3 mph , 6 km/h
Temperature: 46°F , 8°C
Dew Point: 27°F , -3°C
Humidity: 46%
Barometer: 30.01 inHg , 1016.3 hPa
Clouds: Clear
Visibility: 10 miles , 16 km
2020/02/18 13:54 KMRY 181354Z 10003KT 10SM CLR 08/M03 A3001 RMK AO2 SLP175 T00831033
 
KCCR - Concord, California, USA
Distance from station: N 50mi, 81km
Updated: Tue, 18-Feb-2020 5:53am PST
Clear
Clear
 Wind from varies
Wind: varies 3 mph , 6 km/h
Temperature: 54°F , 12°C
Dew Point: 21°F , -6°C
Humidity: 28%
Barometer: 30.05 inHg , 1017.6 hPa
Clouds: Clear
Visibility: 10 miles , 16 km
2020/02/18 13:53 KCCR 181353Z VRB03KT 10SM CLR 12/M06 A3005 RMK AO2 SLP161 T01171061

Metar display script from Saratoga-Weather.org